< < Back
Terminal Aerodrome Forecast


Current Version              Previous Versions:   1  2  3  4  5  6  7  8  9  

Terminal Aerodrome Forecast

936
FTUS42 KILM 280524
TAFFLO
TAF
KFLO 280524Z 2806/2906 27009KT P6SM -RA SCT015 OVC070
     FM280730 33010KT P6SM BKN080
     FM281300 33010G19KT P6SM SCT030 SCT070 SCT150
     FM290000 36005KT P6SM FEW150=

Latest METAR

526
SAUS70 KWBC 281400 RRE
MTRFLO
METAR KFLO 281353Z 02010KT 10SM FEW034 FEW049 08/M01 A3004 RMK AO2
SLP172 T00781006


USA.gov is the U.S. government's official web portal to all federal, state and local government web resources and services.